CYBK

Baker Lake Airport

Baker Lake, Canada

CYBK 191400Z 24008KT 3SM VCFG FEW020 BKN210 03/03 A2999 RMK FG1SC1CC4 VIS E 1 SLP160

Observed Flight Rules
Sep-19 @ 14:00 UTC (an hour ago)
 
Marginal Visual Flight Rules
Wind Visibility Clouds Conditions
240° at 8 knots 3 miles
  • Few at 2,000' AGL
  • Broken at 21,000' AGL
  • Area Fog
Temperatures Readings
Current 3°C / 37°F
Dewpoint 3°C / 37°F
Humidity 100%
Altimeter 29.99" Hg
Pressure 1016 hPa
Elevation 18
Observed Flight Rules
Sep-19 @ 14:00 UTC
(an hour ago)
 
MVFR
Wind Visibility
240° at 8 knots 3 miles
Clouds Conditions
  • Few at 2,000' AGL
  • Broken at 21,000' AGL
  • Area Fog
Temperature Dewpoint
3°C / 37°F 3°C / 37°F
Humidity Altimeter Pressure
100% 29.99" Hg 1016 hPa